Tiempo atmosférico en la estación meteorológica de Cazalla De La Sierra, Sevilla (550 m.)



Fecha
DESCASC
Temp. máxima en grados centígrados (hora)
DESCASC
Temp. mínima en grados centígrados (hora)
DESCASC
Temp. media en grados centígrados
DESCASC
Racha de viento máxima en m/sg (hora)
DESCASC
Velocidad máxima media en intervalos de 10 minutos(hora)
DESCASC
Precipitaciones diarias en mm
DESCASC
Precipitaciones de 00:00 a 06:00 en mm
DESCASC
Precipitaciones de 06:00 a 12:00 en mm
DESCASC
Precipitaciones de 12:00 a 18:00 en mm
DESCASC
Precipitaciones de 18:00 a 24:00 en mm
DESCASC
21-03-2019 17.1 (17:50) 1.8 (07:00) 9.5 9.17 (12:30) 4.72 (11:50) 0 0 0 0 0
20-03-2019 17 (17:10) 3.1 (02:20) 10 8.33 (09:30) 5 (09:40) 0 0 0 0 0
19-03-2019 17.8 (15:30) 2 (06:00) 9.9 8.89 (15:00) 4.44 (16:50) 0 0 0 0 0
18-03-2019 19.8 (16:50) 5.3 (05:20) 12.5 7.5 (09:30) 4.17 (09:30) 0 0 0 0 0
17-03-2019 20.9 (14:40) 3.4 (00:00) 12.1 11.67 (15:30) 6.67 (15:30) 0 0 0 0 0
16-03-2019 22.7 (16:10) 3.9 (00:00) 13.3 6.94 (16:20) 3.89 (11:10) 0 0 0 0 0
15-03-2019 24.3 (16:40) 2.3 (00:00) 13.3 5.28 (00:10) 3.06 (00:10) 0 0 0 0 0
14-03-2019 19.9 (15:40) 3.4 (00:00) 11.6 5.83 (11:50) 3.61 (09:30) 0 0 0 0 0
13-03-2019 17.4 (16:30) 7.3 (07:10) 12.3 8.89 (10:20) 4.72 (10:20) 0 0 0 0 0
12-03-2019 22.5 (17:00) 6.4 (00:00) 14.5 7.22 (14:40) 3.89 (15:00) 0 0 0 0 0
11-03-2019 23.4 (15:50) 6.6 (00:00) 15 8.89 (11:00) 3.89 (15:10) 0 0 0 0 0
10-03-2019 23.2 (16:00) 5.5 (00:00) 14.4 7.22 (17:10) 3.06 (17:30) 0 0 0 0 0
09-03-2019 20.7 (17:30) 4 (00:00) 12.4 6.11 (16:10) 2.5 (10:10) 0 0 0 0 0
08-03-2019 16.5 (17:40) 8.1 (00:00) 12.3 4.72 (15:30) 2.5 (22:00) 6.1 4.5 1.6 0 0
07-03-2019 13.5 (13:20) 2.8 (00:00) 8.1 6.67 (15:40) 2.78 (14:10) 0.1 0 0 0.1 0
06-03-2019 12.9 (00:10) 6.5 (00:00) 9.7 20 (13:40) 9.17 (13:40) 27.4 0 22 5.4 0
05-03-2019 14.3 (12:20) 10.4 (00:00) 12.3 6.39 (13:50) 3.61 (00:20) 2.3 0 0 2.3 0
04-03-2019 16.9 (17:30) 3.1 (00:00) 10 8.33 (18:00) 4.17 (18:00) 0 0 0 0 0
03-03-2019 21.6 (14:20) 4.1 (00:00) 12.9 6.67 (16:20) 3.61 (17:50) 0 0 0 0 0
02-03-2019 20.7 (17:20) 4.5 (00:00) 12.6 6.67 (16:40) 2.78 (03:40) 0 0 0 0 0
01-03-2019 18.7 (15:40) 4.7 (00:00) 11.7 5.28 (13:50) 2.5 (16:10) 0 0 0 0 0
28-02-2019 21 (16:10) 2.9 (00:00) 12 4.44 (15:20) 2.22 (15:40) 0 0 0 0 0
27-02-2019 20.2 (15:20) 5.5 (00:00) 12.9 7.22 (04:20) 4.44 (04:20) 0 0 0 0 0
26-02-2019 19.3 (14:40) 3.8 (00:00) 11.5 8.06 (16:40) 4.44 (10:40) 0 0 0 0 0
25-02-2019 18.3 (17:10) 3.1 (00:00) 10.7 6.67 (16:00) 4.17 (16:00) 0 0 0 0 0
24-02-2019 19.7 (16:40) 2.8 (00:00) 11.3 8.89 (12:20) 4.17 (12:10) 0 0 0 0 0
23-02-2019 20.9 (16:30) 2.9 (00:00) 11.9 6.11 (16:30) 3.06 (16:30) 0 0 0 0 0
22-02-2019 19.3 (16:00) 5.4 (00:00) 12.3 8.06 (12:40) 3.89 (06:30) 0 0 0 0 0
21-02-2019 17 (14:40) 5.9 (04:40) 11.5 7.5 (12:10) 4.17 (11:50) 0 0 0 0 0
20-02-2019 16.7 (16:00) 3.5 (07:40) 10.1 6.11 (11:40) 2.78 (11:40) 0 0 0 0 0

Gráficas

Temp. máximas Temp. mínimas Temp. medias Precipitaciones Rachas de viento máximas Velocidades máximas media en intervalos de 10 minutos

Datos horarios

Fecha y hora oficial Temperatura (ºC) Velocidad del viento (km/h) Dirección del viento Racha (km/h) Dirección de racha Precipitación (mm) Presión (hPa) Tendencia (hPa) Humedad (%)
2019-03-21 23:00:00 5 4 Sudeste 8 Este 0 959.6 1.3 71
2019-03-21 22:00:00 4.6 5 Este 8 Este 0 959.4 1.4 71
2019-03-21 21:00:00 5.5 3 Sudeste 5 Este 0 958.9 1.3 64
2019-03-21 20:00:00 9 2 Este 11 Sur 0 958.3 0.4 45
2019-03-21 19:00:00 14.7 5 Sur 16 Sudoeste 0 958 -0.2 27
2019-03-21 18:00:00 16.2 5 Sudeste 14 Sur 0 957.6 -1.1 27
2019-03-21 17:00:00 16.3 9 Este 18 Este 0 957.9 -1.5 26
2019-03-21 16:00:00 16 9 Sudeste 24 Este 0 958.2 -1.8 26
2019-03-21 15:00:00 15.5 9 Este 26 Este 0 958.7 -1.6 26
2019-03-21 14:00:00 15.1 14 Este 31 Este 0 959.4 -1.3 26
2019-03-21 13:00:00 14.4 13 Sudeste 33 Sudeste 0 960 -0.6 27
2019-03-21 12:00:00 13.6 15 Este 30 Este 0 960.3 -0.3 31
2019-03-21 11:00:00 12.2 15 Este 27 Este 0 960.7 0.5 40
2019-03-21 10:00:00 10.9 12 Este 22 Este 0 960.6 0.8 57
2019-03-21 09:00:00 8.5 4 Este 8 Este 0 960.6 1.4 81
2019-03-21 08:00:00 3.9 4 Este 8 Este 0 960.2 1.1 94
2019-03-21 07:00:00 2 6 Este 8 Este 0 959.8 0.6 94
2019-03-21 06:00:00 2.7 5 Sudeste 6 Este 0 959.2 -0.4 93
2019-03-21 05:00:00 3.9 0 Calma 8 Este 0 959.1 -0.6 91
2019-03-21 04:00:00 3.5 0 Calma 3 Oeste 0 959.2 -0.6 91
2019-03-21 03:00:00 3.5 0 Calma 8 Este 0 959.6 -0.5 89
2019-03-21 02:00:00 3.6 2 Este 5 Sudeste 0 959.7 -0.3 89
2019-03-21 01:00:00 4.4 3 Sudeste 8 Este 0 959.8 0.1 84
2019-03-21 00:00:00 6.2 5 Este 10 Sudeste 0 960.1 0.8 79
2019-03-20 23:00:00 6.7 2 Sudeste 7 Sur 0 960 1.3 69
2019-03-20 22:00:00 10.8 6 Sudeste 16 Sur 0 959.7 1.2 56
2019-03-20 21:00:00 9 3 Este 5 Este 0 959.3 1.5 59
2019-03-20 20:00:00 11.6 3 Sudeste 13 Sur 0 958.7 1 47
2019-03-20 19:00:00 13.5 6 Sudeste 16 Sudeste 0 958.5 0.6 41
2019-03-20 18:00:00 16.6 6 Sudeste 17 Sudeste 0 957.8 -0.6 36
2019-03-20 17:00:00 16.4 8 Este 22 Nordeste 0 957.7 -1.4 36
2019-03-20 16:00:00 16.5 6 Este 20 Sudeste 0 957.9 -1.9 36
2019-03-20 15:00:00 15.6 9 Este 21 Nordeste 0 958.4 -1.8 34
2019-03-20 14:00:00 15 8 Sudeste 19 Este 0 959.1 -1.1 37
2019-03-20 13:00:00 14.6 5 Nordeste 24 Nordeste 0 959.8 -0.4 40
2019-03-20 12:00:00 12.6 5 Este 23 Este 0 960.2 0.3 42
2019-03-20 11:00:00 11.6 9 Nordeste 26 Nordeste 0 960.2 0.7 46
2019-03-20 10:00:00 10.4 9 Nordeste 30 Este 0 960.2 1.3 48
2019-03-20 09:00:00 9 14 Nordeste 26 Este 0 959.9 1.1 51
2019-03-20 08:00:00 7.6 12 Nordeste 25 Este 0 959.5 0.7 52
2019-03-20 07:00:00 6.6 9 Este 18 Este 0 958.9 0 58
2019-03-20 06:00:00 6.9 8 Nordeste 14 Nordeste 0 958.8 -0.5 58
2019-03-20 05:00:00 6.1 6 Este 14 Nordeste 0 958.8 -0.5 63
2019-03-20 04:00:00 7 6 Este 13 Este 0 958.9 -0.8 61
2019-03-20 03:00:00 5.9 7 Este 13 Este 0 959.3 -0.3 69
2019-03-20 02:00:00 3.4 5 Este 7 Sudeste 0 959.3 -0.2 82
2019-03-20 01:00:00 4.3 5 Este 8 Sudeste 0 959.7 0.8 78
2019-03-20 00:00:00 4.6 5 Sudeste 8 Sudeste 0 959.6 1.1 75
2019-03-19 23:00:00 5.5 4 Sudeste 7 Sudeste 0 959.5 1.5 73
2019-03-19 22:00:00 6.7 3 Sudeste 5 Este 0 958.9 1.5 67
2019-03-19 21:00:00 9 0 Calma 6 Nordeste 0 958.5 1.6 54
2019-03-19 20:00:00 12.6 3 Nordeste 19 Este 0 958 1.2 38
2019-03-19 19:00:00 15.4 10 Este 28 Este 0 957.4 0.5 32
2019-03-19 18:00:00 16.2 12 Nordeste 27 Nordeste 0 956.9 0.1 32
2019-03-19 17:00:00 17 12 Nordeste 28 Este 0 956.8 -0.8 32
2019-03-19 16:00:00 17.2 14 Nordeste 32 Norte 0 956.9 -1.2 32
2019-03-19 15:00:00 17 13 Este 32 Este 0 956.8 -1.7 31
2019-03-19 14:00:00 17.2 11 Nordeste 24 Nordeste 0 957.6 -0.7 31
2019-03-19 13:00:00 16.5 12 Nordeste 23 Nordeste 0 958.1 -0.1 32
2019-03-19 12:00:00 15.2 14 Este 27 Nordeste 0 958.5 0.6 32
2019-03-19 11:00:00 14.5 14 Nordeste 25 Este 0 958.3 0.8 34
2019-03-19 10:00:00 12.7 12 Este 19 Este 0 958.2 0.8 37
2019-03-19 09:00:00 10 6 Sudeste 11 Este 0 957.9 0.8 48
2019-03-19 08:00:00 4 6 Este 9 Sudeste 0 957.5 0.4 72
2019-03-19 07:00:00 3.7 6 Sudeste 9 Sudeste 0 957.4 0 72
2019-03-19 06:00:00 2.4 3 Este 7 Sudeste 0 957.1 -0.7 80
2019-03-19 05:00:00 3.1 5 Sudeste 7 Sudeste 0 957.1 -1 78
2019-03-19 04:00:00 3.4 3 Sudeste 7 Este 0 957.4 -0.5 78
2019-03-19 03:00:00 4.6 4 Este 6 Este 0 957.8 -0.1 70
2019-03-19 02:00:00 7.5 3 Este 11 Este 0 958.1 0.1 50
2019-03-19 01:00:00 9.4 5 Este 10 Este 0 957.9 0.3 45
2019-03-19 00:00:00 9.3 4 Este 10 Nordeste 0 957.9 0.4 47
2019-03-18 23:00:00 10.3 4 Este 8 Este 0 958 1.1 47
2019-03-18 22:00:00 11.7 5 Este 12 Nordeste 0 957.6 1.4 46
2019-03-18 21:00:00 13 5 Nordeste 11 Norte 0 957.5 1.9 42
2019-03-18 20:00:00 14.7 4 Nordeste 11 Nordeste 0 956.9 1.4 38
2019-03-18 19:00:00 17.7 6 Norte 19 Norte 0 956.2 0.5 34
2019-03-18 18:00:00 19.1 3 Noroeste 16 Nordeste 0 955.6 -0.3 36
2019-03-18 17:00:00 18.5 6 Este 23 Nordeste 0 955.5 -1.1 34
2019-03-18 16:00:00 18.1 5 Este 18 Este 0 955.7 -1.2 36
2019-03-18 15:00:00 19 8 Sudeste 17 Sudeste 0 955.9 -1.2 37
2019-03-18 14:00:00 18 6 Nordeste 17 Nordeste 0 956.6 -0.4 39
2019-03-18 13:00:00 17.5 10 Este 21 Sudeste 0 956.9 0.6 41
2019-03-18 12:00:00 16 11 Nordeste 21 Nordeste 0 957.1 0.9 47
2019-03-18 11:00:00 13.9 14 Este 25 Este 0 957 1.3 56
2019-03-18 10:00:00 11.6 14 Este 27 Nordeste 0 956.3 1.3 65
2019-03-18 09:00:00 9.5 11 Nordeste 20 Nordeste 0 956.2 1.8 84
2019-03-18 08:00:00 7 6 Este 11 Este 0 955.7 1.2 94
2019-03-18 07:00:00 6.9 5 Este 8 Este 0 955 0.4 94
2019-03-18 06:00:00 6.1 3 Sudeste 7 Nordeste 0 954.4 -0.5 94
2019-03-18 05:00:00 6.1 4 Este 6 Este 0 954.5 -0.6 94
2019-03-18 04:00:00 8.2 2 Oeste 9 Noroeste 0 954.6 -0.5 92
2019-03-18 03:00:00 8.7 7 Noroeste 14 Noroeste 0 954.9 -0.4 90
2019-03-18 02:00:00 9.8 6 Noroeste 17 Noroeste 0 955.1 -0.3 86
2019-03-18 01:00:00 10.3 10 Noroeste 20 Noroeste 0 955.1 0.1 84
2019-03-18 00:00:00 10.8 10 Noroeste 19 Noroeste 0 955.3 0.6 81
2019-03-17 23:00:00 11.6 8 Noroeste 22 Noroeste 0 955.4 1.2 78
2019-03-17 22:00:00 12.5 9 Noroeste 19 Noroeste 0 955 0.5 72
2019-03-17 21:00:00 12.4 5 Noroeste 19 Noroeste 0 954.7 0.4 61
2019-03-17 20:00:00 13.3 9 Noroeste 23 Noroeste 0 954.2 0 56
2019-03-17 19:00:00 15.6 11 Norte 30 Norte 0 954.5 0.3 47
2019-03-17 18:00:00 16.6 15 Noroeste 35 Noroeste 0 954.3 -0.4 46
2019-03-17 17:00:00 17.2 20 Noroeste 37 Noroeste 0 954.2 -1.4 42
2019-03-17 16:00:00 19.8 20 Oeste 42 Oeste 0 954.2 -2.2 28
2019-03-17 15:00:00 20.5 21 Oeste 35 Noroeste 0 954.7 -2.1 28
2019-03-17 14:00:00 20.4 13 Oeste 24 Noroeste 0 955.6 -1.3 33
2019-03-17 13:00:00 19.2 15 Noroeste 26 Oeste 0 956.4 -0.3 33
2019-03-17 12:00:00 17.7 13 Oeste 21 Noroeste 0 956.8 0.4 37
2019-03-17 11:00:00 15.8 7 Oeste 13 Oeste 0 956.9 1.3 47
2019-03-17 10:00:00 13.2 6 Oeste 11 Noroeste 0 956.7 1.9 58
2019-03-17 09:00:00 8.9 0 Calma 8 Sudeste 0 956.4 1.7 83
2019-03-17 08:00:00 3.8 5 Sudeste 8 Este 0 955.6 1.1 90
2019-03-17 07:00:00 4.2 5 Sudeste 8 Este 0 954.8 0.1 90
2019-03-17 06:00:00 4.8 5 Sudeste 8 Sudeste 0 954.7 -0.5 90
2019-03-17 05:00:00 5.7 6 Este 9 Este 0 954.5 -0.8 90
2019-03-17 04:00:00 5.3 4 Este 6 Sudeste 0 954.7 -0.9 88
2019-03-17 03:00:00 6.6 0 Calma 10 Norte 0 955.2 -0.6 82
2019-03-17 02:00:00 5.4 5 Este 7 Este 0 955.3 -0.5 89
2019-03-17 01:00:00 6.6 5 Sudeste 7 Este 0 955.6 0 85
2019-03-17 00:00:00 7.1 4 Sudeste 7 Este 0 955.8 0.4 84
2019-03-16 23:00:00 8 5 Sudeste 6 Sudeste 0 955.8 0.7 80
2019-03-16 22:00:00 9.4 0 Calma 5 Este 0 955.6 0.8 73
2019-03-16 21:00:00 10.6 0 Calma 7 Noroeste 0 955.4 0.6 65
2019-03-16 20:00:00 15.5 2 Sur 12 Sudoeste 0 955.1 0.1 41
2019-03-16 19:00:00 19.9 5 Sudoeste 15 Sudoeste 0 954.8 -0.5 32
2019-03-16 18:00:00 21.2 6 Sudoeste 19 Sudoeste 0 954.8 -0.9 29
2019-03-16 17:00:00 21.7 8 Sudoeste 25 Oeste 0 955 -1.7 28
2019-03-16 16:00:00 21.9 7 Sudoeste 21 Oeste 0 955.3 -2 28
2019-03-16 15:00:00 21.5 8 Sudoeste 24 Sudoeste 0 955.7 -2.1 29
2019-03-16 14:00:00 21.3 10 Sudoeste 20 Sudoeste 0 956.7 -1.2 28
2019-03-16 13:00:00 21.4 4 Sudoeste 13 Sudeste 0 957.3 -0.5 30
2019-03-16 12:00:00 19.5 12 Sudeste 24 Sur 0 957.8 0.1 30
2019-03-16 11:00:00 18.6 12 Sudeste 23 Sur 0 957.9 0.4 31
2019-03-16 10:00:00 17.5 8 Sur 21 Sudeste 0 957.8 0.4 32
2019-03-16 09:00:00 10.3 0 Calma 4 Este 0 957.7 0.1 64
2019-03-16 08:00:00 4.5 3 Sudeste 8 Este 0 957.5 0 73
2019-03-16 07:00:00 5 5 Este 8 Este 0 957.4 -0.5 71
2019-03-16 06:00:00 4.9 6 Sudeste 9 Sudeste 0 957.6 -0.9 74
2019-03-16 05:00:00 6 4 Sudeste 6 Este 0 957.5 -1.4 71
2019-03-16 04:00:00 6.9 5 Sudeste 8 Este 0 957.9 -1.3 67
2019-03-16 03:00:00 6.3 5 Sudeste 8 Sudeste 0 958.5 -1.2 72
2019-03-16 02:00:00 7.1 5 Sudeste 8 Sudeste 0 958.9 -0.8 68
2019-03-16 01:00:00 7.7 5 Sudeste 9 Este 0 959.2 -0.4 68
2019-03-16 00:00:00 7.6 7 Sudeste 8 Sudeste 0 959.7 0.4 68
2019-03-15 23:00:00 8.5 6 Sudeste 8 Este 0 959.7 0.7 66
2019-03-15 22:00:00 8.4 7 Este 8 Este 0 959.6 1 67
2019-03-15 21:00:00 10.4 5 Este 8 Sudeste 0 959.3 0.8 59
2019-03-15 20:00:00 12.7 4 Este 8 Sur 0 959 0.3 48
2019-03-15 19:00:00 20.3 4 Sur 11 Sudoeste 0 958.6 -0.2 26
2019-03-15 18:00:00 22.8 5 Sur 11 Sur 0 958.5 -1 24
2019-03-15 17:00:00 24 3 Sur 13 Oeste 0 958.7 -1.3 26
2019-03-15 16:00:00 23.5 3 Este 13 Sudeste 0 958.8 -1.9 23
2019-03-15 15:00:00 23.1 5 Sudeste 14 Este 0 959.5 -1.8 23
2019-03-15 14:00:00 22 7 Este 17 Este 0 960 -1.4 24
2019-03-15 13:00:00 21.1 7 Este 18 Este 0 960.7 -0.6 25
2019-03-15 12:00:00 20.1 9 Este 18 Este 0 961.3 -0.2 27
2019-03-15 11:00:00 17.4 10 Este 17 Este 0 961.4 0.1 35
2019-03-15 10:00:00 15.3 9 Este 13 Este 0 961.3 0.4 42
2019-03-15 09:00:00 9.2 4 Sudeste 7 Este 0 961.5 0.6 74
2019-03-15 08:00:00 2.7 5 Sudeste 6 Sudeste 0 961.3 0.4 86
2019-03-15 07:00:00 3.2 3 Sudeste 8 Este 0 960.9 0.1 83
2019-03-15 06:00:00 4.4 5 Este 7 Este 0 960.9 -0.4 78
2019-03-15 05:00:00 5.9 5 Sudeste 8 Sudeste 0 960.9 -0.8 66
2019-03-15 04:00:00 9.1 6 Este 13 Este 0 960.8 -1.3 53
2019-03-15 03:00:00 9.9 5 Sudeste 15 Este 0 961.3 -0.9 52
2019-03-15 02:00:00 7.8 6 Este 12 Este 0 961.7 -0.7 57
2019-03-15 01:00:00 10.1 7 Este 19 Nordeste 0 962.1 0 48
2019-03-15 00:00:00 12 8 Este 17 Nordeste 0 962.2 0.3 45
2019-03-14 23:00:00 10.4 5 Sudeste 11 Nordeste 0 962.4 0.6 51
2019-03-14 22:00:00 12.2 5 Nordeste 17 Nordeste 0 962.1 0.6 47
2019-03-14 21:00:00 8.7 4 Este 9 Norte 0 961.9 0.6 63
2019-03-14 20:00:00 11.2 3 Nordeste 6 Este 0 961.8 0.2 48
2019-03-14 19:00:00 18.5 3 Nordeste 17 Este 0 961.5 -0.4 28
2019-03-14 18:00:00 19.1 7 Nordeste 15 Sudeste 0 961.3 -0.7 27
2019-03-14 17:00:00 19.6 8 Este 16 Este 0 961.6 -0.9 26
2019-03-14 16:00:00 19.3 7 Este 15 Este 0 961.9 -1.4 27
2019-03-14 15:00:00 18.8 5 Este 17 Este 0 962 -1.7 28
2019-03-14 14:00:00 18.3 4 Sudeste 20 Este 0 962.5 -1.5 31
2019-03-14 13:00:00 17.2 8 Este 20 Nordeste 0 963.3 -0.7 32
2019-03-14 12:00:00 15.7 11 Este 21 Este 0 963.7 0.2 33
2019-03-14 11:00:00 14.2 10 Este 19 Nordeste 0 964 0.9 38
2019-03-14 10:00:00 12.3 10 Este 19 Este 0 964 1.3 43
2019-03-14 09:00:00 9.5 10 Este 14 Este 0 963.5 0.9 52
2019-03-14 08:00:00 5.9 8 Este 12 Este 0 963.1 0.7 64
2019-03-14 07:00:00 4.6 6 Sudeste 8 Este 0 962.7 0.4 68
2019-03-14 06:00:00 6.3 4 Sudeste 14 Este 0 962.6 -0.3 57
2019-03-14 05:00:00 8.1 10 Este 17 Este 0 962.4 -0.6 52
2019-03-14 04:00:00 7.3 8 Este 17 Este 0 962.3 -0.4 54
2019-03-14 03:00:00 9.1 10 Este 18 Nordeste 0 962.9 0.3 51
2019-03-14 02:00:00 9.4 9 Este 17 Nordeste 0 963 0.7 51
2019-03-14 01:00:00 10.3 5 Nordeste 19 Nordeste 0 962.7 0.4 50
2019-03-14 00:00:00 11 8 Nordeste 21 Este 0 962.6 0.7 48
2019-03-13 23:00:00 11.4 7 Nordeste 17 Norte 0 962.3 0.7 48
2019-03-13 22:00:00 11 6 Noroeste 17 Norte 0 962.3 1.1 53
2019-03-13 21:00:00 12.9 3 Nordeste 14 Nordeste 0 961.9 1.1 52
2019-03-13 20:00:00 13.6 5 Nordeste 14 Nordeste 0 961.6 1 48
2019-03-13 19:00:00 15.5 6 Nordeste 23 Norte 0 961.2 0.5 43
2019-03-13 18:00:00 16.7 9 Nordeste 27 Noroeste 0 960.8 0.1 42
2019-03-13 17:00:00 17 10 Norte 26 Noroeste 0 960.6 -0.6 40
2019-03-13 16:00:00 16.4 13 Noroeste 28 Noroeste 0 960.7 -1 41
2019-03-13 15:00:00 16.1 14 Norte 29 Noroeste 0 960.7 -1 42
2019-03-13 14:00:00 16.1 11 Noroeste 31 Noroeste 0 961.2 -0.5 46
2019-03-13 13:00:00 15.2 11 Norte 29 Noroeste 0 961.7 0.3 52
2019-03-13 12:00:00 13.8 9 Norte 26 Noroeste 0 961.7 0.8 58
2019-03-13 11:00:00 11.6 10 Noroeste 32 Noroeste 0 961.7 1.3 73
2019-03-13 10:00:00 10 7 Norte 19 Noroeste 0 961.4 1.4 83
2019-03-13 09:00:00 9.5 10 Noroeste 26 Norte 0 960.9 1.2 86
2019-03-13 08:00:00 8.6 10 Norte 23 Norte 0 960.4 0.5 91
2019-03-13 07:00:00 7.5 11 Noroeste 21 Noroeste 0 960 0 89
2019-03-13 06:00:00 8.5 8 Noroeste 23 Noroeste 0 959.7 -1 85
2019-03-13 05:00:00 8.5 10 Noroeste 22 Norte 0 959.9 -0.7 85
2019-03-13 04:00:00 8.8 10 Noroeste 19 Noroeste 0 960 -1.1 85
2019-03-13 03:00:00 9.7 4 Oeste 18 Noroeste 0 960.7 -0.6 83
2019-03-13 02:00:00 10.2 5 Sudeste 10 Noroeste 0 960.6 -0.6 83
2019-03-13 01:00:00 10.3 5 Norte 12 Norte 0 961.1 -0.2 81
2019-03-13 00:00:00 10.7 3 Noroeste 10 Sur 0 961.3 0.1 75
2019-03-12 23:00:00 12.4 3 Sur 10 Sur 0 961.2 0.6 68
2019-03-12 22:00:00 11.6 2 Sudeste 7 Oeste 0 961.3 1.1 69
2019-03-12 21:00:00 14.4 4 Oeste 14 Noroeste 0 961.2 1 51
2019-03-12 20:00:00 16.3 9 Noroeste 15 Noroeste 0 960.6 0.3 44
2019-03-12 19:00:00 18.8 10 Oeste 21 Oeste 0 960.2 -0.5 39
2019-03-12 18:00:00 21.4 8 Oeste 24 Sudoeste 0 960.2 -1.2 39
2019-03-12 17:00:00 21.7 12 Oeste 21 Oeste 0 960.3 -1.9 40
2019-03-12 16:00:00 21.9 7 Oeste 23 Noroeste 0 960.7 -2.1 42
2019-03-12 15:00:00 20.8 14 Oeste 26 Oeste 0 961.4 -1.8 45
2019-03-12 14:00:00 20 10 Oeste 24 Oeste 0 962.2 -1.1 48
2019-03-12 13:00:00 19.5 10 Oeste 21 Oeste 0 962.8 -0.5 50
2019-03-12 12:00:00 18.2 13 Oeste 24 Noroeste 0 963.2 0 53
2019-03-12 11:00:00 16.8 11 Oeste 22 Oeste 0 963.3 0.5 53
2019-03-12 10:00:00 15.6 7 Oeste 14 Oeste 0 963.3 0.4 60
2019-03-12 09:00:00 10.6 0 Calma 8 Este 0 963.2 0.3 89
2019-03-12 08:00:00 6.8 3 Sudeste 8 Este 0 962.8 0 93
2019-03-12 07:00:00 6.5 3 Este 7 Este 0 962.9 0.1 91
2019-03-12 06:00:00 7.4 4 Sudeste 6 Este 0 962.9 -0.3 90
2019-03-12 05:00:00 7.8 3 Sudeste 8 Este 0 962.8 -0.5 89
2019-03-12 04:00:00 8.4 5 Sudeste 9 Este 0 962.8 -0.8 90
2019-03-12 03:00:00 9 5 Sudeste 10 Este 0 963.2 -0.6 88
2019-03-12 02:00:00 9 6 Este 9 Este 0 963.3 -0.6 88
2019-03-12 01:00:00 9.3 6 Este 9 Sudeste 0 963.6 0.1 85
2019-03-12 00:00:00 9.9 6 Este 10 Este 0 963.8 0.8 81
2019-03-11 23:00:00 10.9 4 Sudeste 12 Norte 0 963.9 1.1 79
2019-03-11 22:00:00 15.8 7 Nordeste 16 Nordeste 0 963.5 1.2 56
2019-03-11 21:00:00 17.4 8 Norte 18 Norte 0 963 1 47
2019-03-11 20:00:00 17.5 4 Noroeste 13 Norte 0 962.8 0.9 44
2019-03-11 19:00:00 20.8 8 Norte 16 Norte 0 962.3 0.4 38
2019-03-11 18:00:00 22.8 6 Noroeste 21 Nordeste 0 962 -0.1 35
2019-03-11 17:00:00 22.6 13 Norte 21 Norte 0 961.9 -0.9 37
2019-03-11 16:00:00 22.8 10 Norte 23 Norte 0 961.9 -1.3 37
2019-03-11 15:00:00 22.7 9 Norte 22 Noroeste 0 962.1 -1.3 38
2019-03-11 14:00:00 21.6 9 Noroeste 22 Noroeste 0 962.8 -0.7 40
2019-03-11 13:00:00 21 9 Norte 23 Noroeste 0 963.2 0 41
2019-03-11 12:00:00 20.9 6 Nordeste 18 Nordeste 0 963.4 0.2 42
2019-03-11 11:00:00 19.3 9 Nordeste 32 Nordeste 0 963.5 0.6 42
2019-03-11 10:00:00 16 3 Este 9 Sudeste 0 963.2 0.7 63
2019-03-11 09:00:00 12.1 0 Calma 9 Este 0 963.2 0.8 81
2019-03-11 08:00:00 8.8 3 Sudeste 9 Sudeste 0 962.9 0.8 90
2019-03-11 07:00:00 6.8 5 Este 6 Este 0 962.5 0.3 94
2019-03-11 06:00:00 7.4 4 Este 6 Este 0 962.4 -0.1 94
2019-03-11 05:00:00 7.8 4 Este 7 Este 0 962.1 -0.8 93
2019-03-11 04:00:00 8.5 5 Este 7 Este 0 962.2 -0.9 91
2019-03-11 03:00:00 9.6 6 Este 8 Este 0 962.5 -1 90
2019-03-11 02:00:00 10.2 3 Sudeste 6 Sudeste 0 962.9 -0.8 86
2019-03-11 01:00:00 11.3 5 Sudeste 10 Este 0 963.1 -0.6 83
2019-03-11 00:00:00 12.2 5 Sudeste 14 Nordeste 0 963.5 0 74
2019-03-10 23:00:00 15.6 5 Nordeste 16 Nordeste 0 963.7 0.6 59
2019-03-10 22:00:00 15.1 3 Noroeste 13 Norte 0 963.7 0.8 54
2019-03-10 21:00:00 15.8 2 Norte 9 Norte 0 963.5 0.7 49
2019-03-10 20:00:00 16.8 4 Noroeste 12 Norte 0 963.1 0.3 47
2019-03-10 19:00:00 20.3 6 Norte 17 Noroeste 0 962.9 -0.4 41
2019-03-10 18:00:00 21.9 7 Norte 26 Noroeste 0 962.8 -0.9 37
2019-03-10 17:00:00 21.9 9 Noroeste 19 Norte 0 962.8 -1.7 35
2019-03-10 16:00:00 22.5 5 Norte 20 Norte 0 963.3 -1.8 35
2019-03-10 15:00:00 21.8 3 Oeste 17 Noroeste 0 963.7 -1.7 35
2019-03-10 14:00:00 21.4 2 Oeste 20 Oeste 0 964.5 -1.3 37
2019-03-10 13:00:00 20.4 2 Noroeste 14 Noroeste 0 965.1 -0.6 34
2019-03-10 12:00:00 20.5 2 Este 13 Este 0 965.4 0 41
2019-03-10 11:00:00 17.8 8 Este 17 Este 0 965.8 0.7 46
2019-03-10 10:00:00 15.7 8 Este 13 Este 0 965.7 0.7 54
2019-03-10 09:00:00 12.9 6 Sudeste 12 Sudeste 0 965.4 0.6 64
2019-03-10 08:00:00 9.4 6 Sudeste 12 Sudeste 0 965.1 0.3 74
2019-03-10 07:00:00 9.3 5 Sudeste 11 Sudeste 0 965 0 74
2019-03-10 06:00:00 9.5 6 Sudeste 11 Este 0 964.8 -0.4 74
2019-03-10 05:00:00 5.9 4 Este 5 Este 0 964.8 -0.7 89
2019-03-10 04:00:00 6.4 3 Este 6 Este 0 965 -0.9 88
2019-03-10 03:00:00 6.7 5 Este 8 Este 0 965.2 -1 86
2019-03-10 02:00:00 6.8 6 Este 9 Este 0 965.5 -0.7 86
2019-03-10 01:00:00 7.7 6 Este 7 Este 0 965.9 0.2 81
2019-03-10 00:00:00 8.7 5 Este 7 Este 0 966.2 0.6 75
2019-03-09 23:00:00 9.9 4 Sudeste 7 Sudeste 0 966.2 1.1 72
2019-03-09 22:00:00 9 5 Sudeste 7 Este 0 965.7 1.2 77
2019-03-09 21:00:00 10.5 4 Sudeste 6 Sudeste 0 965.6 1.3 73
2019-03-09 20:00:00 11.7 3 Sudeste 6 Este 0 965.1 0.6 67
2019-03-09 19:00:00 19.1 3 Nordeste 13 Norte 0 964.5 -0.1 36
2019-03-09 18:00:00 19.6 4 Nordeste 12 Este 0 964.3 -0.5 34
2019-03-09 17:00:00 19.9 5 Sudeste 22 Este 0 964.5 -0.9 32
2019-03-09 16:00:00 19.6 5 Este 17 Este 0 964.6 -1.4 33
2019-03-09 15:00:00 18.9 6 Oeste 15 Nordeste 0 964.8 -1.5 34
2019-03-09 14:00:00 19 6 Este 15 Este 0 965.4 -0.9 34
2019-03-09 13:00:00 18.3 8 Este 17 Este 0 966 0 37
2019-03-09 12:00:00 17.1 6 Sudeste 14 Este 0 966.3 1 41
2019-03-09 11:00:00 15.1 8 Este 15 Nordeste 0 966.3 1.7 51
2019-03-09 10:00:00 13 7 Este 12 Este 0 966 2.2 57
2019-03-09 09:00:00 8.2 3 Este 6 Sudeste 0 965.3 1.9 86
2019-03-09 08:00:00 4.3 5 Este 7 Este 0 964.6 1.6 93
2019-03-09 07:00:00 4.6 6 Este 8 Este 0 963.8 0.6 91
2019-03-09 06:00:00 5.1 5 Este 8 Este 0 963.4 -0.2 91
2019-03-09 05:00:00 5 4 Este 6 Este 0 963 -0.2 90
2019-03-09 04:00:00 5.7 4 Sudeste 7 Sudeste 0 963.2 0.2 88
2019-03-09 03:00:00 7.3 4 Sudeste 13 Nordeste 0 963.6 1.1 83
2019-03-09 02:00:00 7.8 5 Este 8 Este 0 963.2 1.2 80
2019-03-09 01:00:00 8.3 5 Este 13 Nordeste 0 963 1.5 77
2019-03-09 00:00:00 10.2 3 Norte 13 Norte 0 962.5 1.4 69
2019-03-08 23:00:00 10.5 5 Nordeste 15 Nordeste 0 962 1.9 69
2019-03-08 22:00:00 11.4 9 Nordeste 16 Nordeste 0 961.5 2.7 66
2019-03-08 21:00:00 10.4 7 Noroeste 12 Noroeste 0 961.1 2.9 69
2019-03-08 20:00:00 12.1 4 Nordeste 12 Nordeste 0 960.1 2.1 59
2019-03-08 19:00:00 11.8 0 Calma 8 Nordeste 0 958.8 1.2 67
2019-03-08 18:00:00 15.2 6 Nordeste 14 Nordeste 0 958.2 0.6 44
2019-03-08 17:00:00 14.5 5 Nordeste 14 Nordeste 0 958 0.1 44
2019-03-08 16:00:00 15.2 4 Oeste 17 Este 0 957.6 -0.5 45
2019-03-08 15:00:00 15.1 3 Norte 15 Norte 0 957.6 -0.1 48
2019-03-08 14:00:00 13.5 5 Norte 16 Noroeste 0 957.9 0.6 58
2019-03-08 13:00:00 12.1 6 Norte 16 Norte 0 958.1 1.1 64
2019-03-08 12:00:00 12.2 4 Nordeste 13 Nordeste 0 957.7 1.8 72
2019-03-08 11:00:00 10.8 8 Nordeste 15 Este 0 957.3 2.7 77
2019-03-08 10:00:00 10.2 3 Nordeste 10 Norte 0 957 2.5 81
2019-03-08 09:00:00 8.9 4 Noroeste 9 Noroeste 0 955.9 2.1 90
2019-03-08 08:00:00 8.5 0 Calma 6 Norte 0.1 954.6 1 93
2019-03-08 07:00:00 8.2 3 Oeste 10 Noroeste 1.5 954.5 0.9 94
2019-03-08 06:00:00 8.7 0 Calma 4 Nordeste 1.5 953.8 -0.1 93
2019-03-08 05:00:00 8.8 0 Calma 8 Sur 0.7 953.6 -0.3 91
2019-03-08 04:00:00 8.7 3 Sur 8 Sudoeste 0.4 953.6 -0.5 91
2019-03-08 03:00:00 8.8 3 Sur 16 Sur 0.2 953.9 0 91
2019-03-08 02:00:00 8.7 5 Sudoeste 13 Sudoeste 0.3 953.9 0.1 91
2019-03-08 01:00:00 8.6 3 Oeste 15 Sudoeste 1.4 954.1 0.6 91
2019-03-08 00:00:00 8.8 2 Sudoeste 17 Sur 0 953.9 0.8 88
2019-03-07 23:00:00 8.9 8 Sudoeste 15 Sur 0 953.8 1.1 83
2019-03-07 22:00:00 9.2 6 Oeste 21 Oeste 0 953.5 1.1 79
2019-03-07 21:00:00 9.7 6 Sudoeste 13 Sur 0 953.1 0.9 74
2019-03-07 20:00:00 10.3 3 Sur 14 Sudoeste 0 952.7 0.4 68
2019-03-07 19:00:00 10.8 7 Sudoeste 18 Sudoeste 0 952.4 -0.7 64
2019-03-07 18:00:00 11.1 4 Sudoeste 12 Sudoeste 0 952.2 -1.2 63
2019-03-07 17:00:00 11.4 6 Sudoeste 20 Sudoeste 0.1 952.3 -1.7 63
2019-03-07 16:00:00 10.6 8 Sudoeste 24 Oeste 0 953.1 -1.6 60
2019-03-07 15:00:00 12 9 Oeste 18 Oeste 0 953.4 -1.8 51
2019-03-07 14:00:00 11.6 8 Oeste 17 Noroeste 0 954 -1.8 51
2019-03-07 13:00:00 12.3 7 Noroeste 16 Noroeste 0 954.7 -0.6 49
2019-03-07 12:00:00 10.9 4 Oeste 15 Noroeste 0 955.2 0.7 59
2019-03-07 11:00:00 9.4 8 Noroeste 14 Oeste 0 955.8 1.8 70
2019-03-07 10:00:00 8 5 Noroeste 11 Norte 0 955.3 1.4 79
2019-03-07 09:00:00 6.3 3 Norte 11 Noroeste 0 954.5 1 87
2019-03-07 08:00:00 5 3 Norte 12 Noroeste 0 954 0.8 91
2019-03-07 07:00:00 3.8 3 Norte 8 Norte 0 953.9 0.7 91
2019-03-07 06:00:00 5.2 0 Calma 9 Noroeste 0 953.5 0.2 91
2019-03-07 05:00:00 5.5 0 Calma 17 Noroeste 0 953.2 -0.1 91
2019-03-07 04:00:00 5.1 5 Noroeste 12 Noroeste 0 953.2 0 94
2019-03-07 03:00:00 3.3 0 Calma 6 Este 0 953.3 -0.1 93
2019-03-07 02:00:00 3.4 3 Este 4 Este 0 953.3 0.4 91
2019-03-07 01:00:00 4.6 0 Calma 5 Noroeste 0 953.2 1.1 89
2019-03-07 00:00:00 6.5 3 Oeste 13 Oeste 0 953.4 2 82
2019-03-06 23:00:00 7.7 5 Oeste 12 Oeste 0 952.9 2.5 77
2019-03-06 22:00:00 8.5 5 Oeste 16 Oeste 0 952.1 2.8 72
2019-03-06 21:00:00 8.9 9 Oeste 21 Oeste 0 951.4 3 64
2019-03-06 20:00:00 9.1 9 Oeste 25 Oeste 0 950.4 3.3 66
2019-03-06 19:00:00 10.4 14 Oeste 24 Oeste 0 949.3 2.9 59
2019-03-06 18:00:00 11.5 18 Noroeste 36 Oeste 0 948.4 2.4 56
2019-03-06 17:00:00 12.5 18 Noroeste 37 Oeste 0 947.1 1.9 57
2019-03-06 16:00:00 11 19 Noroeste 43 Noroeste 0 946.4 1.3 68
2019-03-06 15:00:00 10.7 26 Noroeste 42 Oeste 0.5 946 0.5 86
2019-03-06 14:00:00 11.4 17 Oeste 72 Oeste 3.9 945.2 -0.3 92
2019-03-06 13:00:00 12.1 15 Oeste 49 Oeste 1 945.1 -0.7 90
2019-03-06 12:00:00 11.9 21 Oeste 56 Noroeste 12.6 945.5 0.2 91
2019-03-06 11:00:00 11.6 11 Sudoeste 60 Noroeste 1.1 945.5 0.2 91
2019-03-06 10:00:00 11.4 13 Oeste 50 Oeste 2 945.8 0.1 91
2019-03-06 09:00:00 11.4 13 Sudoeste 46 Sudoeste 5.9 945.3 -0.7 94
2019-03-06 08:00:00 11.1 14 Sudoeste 46 Oeste 0.4 945.3 -1.7 94
2019-03-06 07:00:00 11 13 Sudoeste 36 Sudoeste 0 945.7 -1.7 94
2019-03-06 06:00:00 10.9 11 Sudoeste 31 Sudoeste 0 946 -2.3 91
2019-03-06 05:00:00 10.8 12 Sudoeste 33 Sudoeste 0 947 -1.7 91
2019-03-06 04:00:00 10.8 10 Sudoeste 27 Sudoeste 0 947.4 -1.5 89
2019-03-06 03:00:00 11.3 8 Sudoeste 28 Sudoeste 0 948.3 -1.5 90
2019-03-06 02:00:00 11.8 7 Sudoeste 26 Sudoeste 0 948.7 -1.4 94
2019-03-06 01:00:00 12.5 9 Sudoeste 25 Sudoeste 0 948.9 -1.6 93
2019-03-06 00:00:00 12.8 5 Sur 15 Oeste 0 949.8 -1 90
2019-03-05 23:00:00 12.6 3 Sudoeste 14 Oeste 0 950.1 -0.9 91
2019-03-05 22:00:00 12.6 5 Sudoeste 15 Sudoeste 0 950.5 -0.9 91
2019-03-05 21:00:00 12.7 4 Sudoeste 16 Sudoeste 0 950.8 -1 92
2019-03-05 20:00:00 13 6 Sudoeste 19 Sudoeste 0 951 -1.2 92
2019-03-05 19:00:00 13.1 8 Sudoeste 18 Sudoeste 0 951.4 -1.4 91
2019-03-05 18:00:00 13.5 6 Sudoeste 22 Sudoeste 0 951.8 -1.4 90
2019-03-05 17:00:00 13.6 6 Sudoeste 15 Oeste 0.8 952.2 -1.9 91
2019-03-05 16:00:00 13.3 4 Sudoeste 15 Oeste 1.5 952.8 -2 90
2019-03-05 15:00:00 14.1 4 Sudoeste 18 Sudoeste 0 953.2 -2 86
2019-03-05 14:00:00 14 4 Sudoeste 23 Sudoeste 0 954.1 -1.4 83
2019-03-05 13:00:00 13.6 6 Sudoeste 18 Sudoeste 0 954.8 -0.8 81
2019-03-05 12:00:00 13.5 8 Sudoeste 19 Oeste 0 955.2 0 75
2019-03-05 11:00:00 12.8 8 Oeste 14 Oeste 0 955.5 0.7 80
2019-03-05 10:00:00 11.3 5 Oeste 11 Oeste 0 955.6 0.8 90
2019-03-05 09:00:00 10.9 4 Noroeste 9 Oeste 0 955.2 0.7 91
2019-03-05 08:00:00 10.6 5 Noroeste 9 Noroeste 0 954.8 0.1 93
2019-03-05 07:00:00 10.4 5 Oeste 10 Oeste 0 954.8 -0.2 91
2019-03-05 06:00:00 10.8 3 Sudoeste 13 Oeste 0 954.5 -0.8 91
2019-03-05 05:00:00 11 4 Sudoeste 12 Oeste 0 954.7 -1.5 90
2019-03-05 04:00:00 11.3 4 Noroeste 15 Sudoeste 0 955 -1.2 89
2019-03-05 03:00:00 11.4 6 Sudoeste 17 Sudoeste 0 955.3 -1.2 88
2019-03-05 02:00:00 11.9 10 Oeste 18 Oeste 0 956.2 -0.4 86
2019-03-05 01:00:00 12.1 8 Noroeste 19 Oeste 0 956.2 -0.3 89
2019-03-05 00:00:00 12.4 11 Oeste 19 Oeste 0 956.5 0.1 90
2019-03-04 23:00:00 12.4 9 Noroeste 22 Oeste 0 956.6 0.3 91
2019-03-04 22:00:00 12.4 10 Oeste 18 Oeste 0 956.5 0.5 91
2019-03-04 21:00:00 12.9 4 Sudoeste 17 Sudoeste 0 956.4 0.2 88
2019-03-04 20:00:00 13.3 5 Oeste 21 Noroeste 0 956.3 0 83
2019-03-04 19:00:00 14.5 8 Oeste 18 Oeste 0 956 -0.6 69
2019-03-04 18:00:00 15.2 15 Oeste 30 Oeste 0 956.2 -1 69
2019-03-04 17:00:00 15.2 5 Oeste 17 Oeste 0 956.3 -1.6 70
2019-03-04 16:00:00 15.3 8 Oeste 18 Oeste 0 956.6 -1.9 66
2019-03-04 15:00:00 16.3 8 Oeste 24 Oeste 0 957.2 -1.2 65
2019-03-04 14:00:00 14.8 9 Oeste 20 Oeste 0 957.9 -0.7 69
2019-03-04 13:00:00 14.6 6 Oeste 17 Oeste 0 958.5 -0.1 65
2019-03-04 12:00:00 14.3 5 Sudoeste 17 Oeste 0 958.4 0.2 59
2019-03-04 11:00:00 13.9 7 Sudoeste 13 Oeste 0 958.6 1 62
2019-03-04 10:00:00 9.2 5 Oeste 9 Oeste 0 958.6 1.1 91
2019-03-04 09:00:00 6.6 3 Sudeste 5 Este 0 958.2 1.2 93
2019-03-04 08:00:00 3.3 3 Sudeste 7 Este 0 957.6 0.6 94
2019-03-04 07:00:00 3.8 0 Calma 8 Este 0 957.5 -0.1 93
2019-03-04 06:00:00 5.9 6 Sudeste 10 Este 0 957 -0.8 93
2019-03-04 05:00:00 6.7 4 Este 8 Noroeste 0 957 -1.3 90
2019-03-04 04:00:00 8.4 0 Calma 9 Norte 0 957.6 -0.9 88
2019-03-04 03:00:00 6.5 6 Este 9 Este 0 957.8 -0.5 90
2019-03-04 02:00:00 7.8 4 Este 9 Oeste 0 958.3 -0.2 85
2019-03-04 01:00:00 10.2 3 Noroeste 11 Noroeste 0 958.5 0.3 81
2019-03-04 00:00:00 7.3 3 Sudeste 7 Sudeste 0 958.3 0.3 86
2019-03-03 23:00:00 7.9 3 Sudeste 6 Sudeste 0 958.5 0.8 81
2019-03-03 22:00:00 9.1 3 Sudeste 6 Este 0 958.2 0.7 74
2019-03-03 21:00:00 9.9 3 Este 4 Este 0 958 0.5 65
2019-03-03 20:00:00 12.4 0 Calma 8 Oeste 0 957.7 0.1 51
2019-03-03 19:00:00 17.5 4 Oeste 17 Oeste 0 957.5 -0.5 36
2019-03-03 18:00:00 19.9 10 Oeste 23 Oeste 0 957.5 -1 32
2019-03-03 17:00:00 20.7 8 Sudoeste 24 Sudoeste 0 957.6 -1.7 31
2019-03-03 16:00:00 21 12 Oeste 22 Noroeste 0 958 -2 31
2019-03-03 15:00:00 20.4 7 Sudoeste 18 Sudoeste 0 958.5 -1.9 36
2019-03-03 14:00:00 20.4 6 Oeste 14 Oeste 0 959.3 -1.5 36
2019-03-03 13:00:00 19.9 5 Oeste 16 Oeste 0 960 -0.8 37
2019-03-03 12:00:00 19.6 3 Este 12 Nordeste 0 960.4 -0.3 38
2019-03-03 11:00:00 17.4 4 Este 8 Este 0 960.8 0.8 42
2019-03-03 10:00:00 14.5 3 Sudeste 5 Sudeste 0 960.8 1 59
2019-03-03 09:00:00 8.1 3 Sudeste 9 Este 0 960.7 1.4 84
2019-03-03 08:00:00 4.7 7 Este 9 Este 0 960 1 91
2019-03-03 07:00:00 4.7 4 Este 8 Este 0 959.8 0.2 90
2019-03-03 06:00:00 5.3 7 Este 10 Este 0 959.3 -0.7 89
2019-03-03 05:00:00 5.2 7 Este 9 Este 0 959 -1.2 89
2019-03-03 04:00:00 5.3 5 Sudeste 8 Sudeste 0 959.6 -0.8 86
2019-03-03 03:00:00 5.9 6 Sudeste 9 Sudeste 0 960 -0.6 85
2019-03-03 02:00:00 5.8 5 Sudeste 8 Este 0 960.2 -0.5 85
2019-03-03 01:00:00 6.5 5 Sudeste 8 Sudeste 0 960.4 -0.1 84
2019-03-03 00:00:00 7.2 5 Sudeste 9 Este 0 960.6 0 82
2019-03-02 23:00:00 7.7 6 Este 10 Este 0 960.7 0.4 80
2019-03-02 22:00:00 8.3 6 Este 8 Sudeste 0 960.5 0.8 78
2019-03-02 21:00:00 9.3 4 Sudeste 8 Este 0 960.6 1 75
2019-03-02 20:00:00 11.7 5 Sudeste 7 Norte 0 960.3 0.4 64
2019-03-02 19:00:00 18.2 4 Norte 15 Noroeste 0 959.7 -0.1 41
2019-03-02 18:00:00 19 7 Noroeste 16 Noroeste 0 959.6 -0.7 38
2019-03-02 17:00:00 20.2 6 Noroeste 24 Oeste 0 959.9 -1.1 38
2019-03-02 16:00:00 19.9 4 Este 13 Norte 0 959.8 -1.7 39
2019-03-02 15:00:00 19.8 2 Noroeste 13 Oeste 0 960.3 -1.4 41
2019-03-02 14:00:00 18.4 2 Oeste 13 Oeste 0 961 -0.5 44
2019-03-02 13:00:00 18.2 0 Calma 9 Este 0 961.5 0.1 49
2019-03-02 12:00:00 15.7 2 Nordeste 14 Este 0 961.7 0.9 58
2019-03-02 11:00:00 13.1 6 Nordeste 12 Este 0 961.5 1.4 67
2019-03-02 10:00:00 10.8 0 Calma 5 Sur 0 961.4 1.7 85
2019-03-02 09:00:00 5.9 0 Calma 5 Este 0 960.8 0.9 94
2019-03-02 08:00:00 4.7 0 Calma 7 Este 0 960.1 0.3 94
2019-03-02 07:00:00 4.9 4 Este 10 Noroeste 0 959.7 -0.1 93
2019-03-02 06:00:00 5.3 0 Calma 11 Noroeste 0 959.9 -0.5 91
2019-03-02 05:00:00 7.9 5 Noroeste 10 Noroeste 0 959.8 -0.5 88
2019-03-02 04:00:00 8.6 7 Noroeste 16 Noroeste 0 959.8 -0.6 86
2019-03-02 03:00:00 9.1 7 Noroeste 13 Noroeste 0 960.4 -0.3 85
2019-03-02 02:00:00 8.4 6 Noroeste 13 Noroeste 0 960.3 -0.1 90
2019-03-02 01:00:00 5.4 4 Sudeste 6 Sudeste 0 960.4 0.3 93
2019-03-02 00:00:00 5.9 4 Sudeste 8 Este 0 960.7 0.7 91
2019-03-01 23:00:00 6.5 5 Sudeste 6 Este 0 960.4 0.7 90
2019-03-01 22:00:00 7.2 5 Este 6 Sudeste 0 960.1 1.1 89
2019-03-01 21:00:00 8.1 4 Sudeste 6 Este 0 960 1.3 85
2019-03-01 20:00:00 10 0 Calma 4 Oeste 0 959.7 0.8 74
2019-03-01 19:00:00 15 4 Oeste 10 Oeste 0 959 0.2 53
2019-03-01 18:00:00 16.5 5 Sudoeste 16 Sur 0 958.7 -0.5 49
2019-03-01 17:00:00 16.5 7 Sudoeste 17 Sudoeste 0 958.9 -0.8 46
2019-03-01 16:00:00 16.7 7 Sudoeste 16 Noroeste 0 958.8 -1.6 45
2019-03-01 15:00:00 17.3 7 Sudoeste 18 Sudoeste 0 959.2 -1.2 44
2019-03-01 14:00:00 16.5 7 Sudoeste 19 Oeste 0 959.7 -0.7 46
2019-03-01 13:00:00 15.6 7 Sudoeste 15 Sudoeste 0 960.4 -0.2 47
2019-03-01 12:00:00 15.3 5 Sudoeste 12 Sudoeste 0 960.4 0 51
2019-03-01 11:00:00 14.2 0 Calma 4 Sudeste 0 960.4 0.4 59
2019-03-01 10:00:00 10.7 2 Sudeste 7 Este 0 960.6 0.6 84
2019-03-01 09:00:00 7.2 5 Este 9 Este 0 960.4 0.6 92
2019-03-01 08:00:00 5.1 6 Este 9 Este 0 960 0.1 94
2019-03-01 07:00:00 5.3 4 Este 9 Este 0 960 -0.2 92
2019-03-01 06:00:00 5.5 6 Este 8 Este 0 959.8 -0.8 93
2019-03-01 05:00:00 5.3 4 Sudeste 7 Este 0 959.9 -0.8 91
2019-03-01 04:00:00 5.8 4 Sudeste 6 Este 0 960.2 -0.6 89
2019-03-01 03:00:00 5.9 5 Este 6 Este 0 960.6 -0.5 85
2019-03-01 02:00:00 6.3 2 Este 7 Este 0 960.7 -0.9 81
2019-03-01 01:00:00 9.1 5 Este 9 Sudeste 0 960.8 -0.9 74
2019-03-01 00:00:00 9.7 4 Sudeste 7 Sudeste 0 961.1 -0.5 75
2019-02-28 23:00:00 9.8 0 Calma 8 Este 0 961.6 0 78
2019-02-28 22:00:00 10.7 3 Este 6 Sudeste 0 961.7 0.5 74
2019-02-28 21:00:00 11.1 5 Sudeste 9 Este 0 961.6 0.7 70
2019-02-28 20:00:00 13.2 3 Sudeste 6 Noroeste 0 961.6 0.3 57
2019-02-28 19:00:00 16.5 3 Oeste 12 Oeste 0 961.2 -0.4 42
2019-02-28 18:00:00 18.1 5 Oeste 15 Oeste 0 960.9 -1.2 38
2019-02-28 17:00:00 19.8 5 Oeste 12 Oeste 0 961.3 -1.7 31
2019-02-28 16:00:00 20.9 4 Oeste 16 Oeste 0 961.6 -2 29
2019-02-28 15:00:00 20.2 5 Sudoeste 15 Sudoeste 0 962.1 -1.9 32
2019-02-28 14:00:00 20.8 3 Sudoeste 12 Oeste 0 963 -1 32
2019-02-28 13:00:00 19.4 2 Norte 12 Este 0 963.6 -0.5 33
2019-02-28 12:00:00 17.9 3 Este 11 Este 0 964 0.2 40
2019-02-28 11:00:00 15 6 Este 12 Este 0 964 0.6 51
2019-02-28 10:00:00 10.8 0 Calma 5 Este 0 964.1 0.8 75
2019-02-28 09:00:00 5.5 4 Este 6 Este 0 963.8 0.9 90
2019-02-28 08:00:00 3.1 6 Este 8 Este 0 963.4 0.7 93
2019-02-28 07:00:00 3.4 6 Este 8 Este 0 963.3 0.3 91
2019-02-28 06:00:00 3.5 5 Este 8 Este 0 962.9 -0.4 89
2019-02-28 05:00:00 3.9 6 Este 8 Este 0 962.7 -0.7 86
2019-02-28 04:00:00 4.1 6 Este 8 Este 0 963 -0.7 84
2019-02-28 03:00:00 4.3 6 Este 8 Este 0 963.3 -0.5 83
2019-02-28 02:00:00 4.2 5 Este 8 Sudeste 0 963.4 -0.2 82
2019-02-28 01:00:00 5 5 Este 8 Este 0 963.7 0.2 79
2019-02-28 00:00:00 5.6 5 Este 8 Este 0 963.8 0.8 77
2019-02-27 23:00:00 7.2 5 Sudeste 9 Este 0 963.6 0.9 68
2019-02-27 22:00:00 8.5 4 Este 9 Nordeste 0 963.5 1.2 63
2019-02-27 21:00:00 12 0 Calma 12 Norte 0 963 1 50
2019-02-27 20:00:00 11.5 4 Nordeste 10 Norte 0 962.7 0.6 53
2019-02-27 19:00:00 14 0 Calma 11 Oeste 0 962.3 0.2 45
2019-02-27 18:00:00 17.3 9 Oeste 15 Oeste 0 962 -0.3 35
2019-02-27 17:00:00 18.6 9 Oeste 18 Oeste 0 962.1 -0.6 31
2019-02-27 16:00:00 18.7 7 Oeste 18 Oeste 0 962.1 -1.1 32
2019-02-27 15:00:00 19.6 5 Sudoeste 17 Oeste 0 962.3 -1.2 31
2019-02-27 14:00:00 18.8 4 Sudoeste 14 Sudeste 0 962.7 -0.6 32
2019-02-27 13:00:00 18.2 6 Sur 15 Sudeste 0 963.2 0.5 33
2019-02-27 12:00:00 16.6 8 Sudeste 22 Sur 0 963.5 1 36
2019-02-27 11:00:00 14.8 12 Sudeste 23 Este 0 963.3 1.3 37
2019-02-27 10:00:00 13.2 11 Sudeste 21 Sudeste 0 962.7 1 40
2019-02-27 09:00:00 10.9 8 Este 20 Este 0 962.5 0.9 41
2019-02-27 08:00:00 10.2 10 Este 24 Sudeste 0 962 0.1 40
2019-02-27 07:00:00 10.2 9 Este 19 Este 0 961.7 -0.5 41
2019-02-27 06:00:00 10 10 Este 19 Sudeste 0 961.6 -1.2 41
2019-02-27 05:00:00 10.6 10 Sudeste 26 Este 0 961.9 -0.8 40
2019-02-27 04:00:00 9.9 14 Este 22 Sudeste 0 962.2 -0.6 42
2019-02-27 03:00:00 9.7 11 Este 22 Este 0 962.8 -0.2 41
2019-02-27 02:00:00 11.2 12 Este 22 Este 0 962.7 -0.2 38
2019-02-27 01:00:00 10.2 12 Este 17 Este 0 962.8 0.4 39
2019-02-27 00:00:00 10.7 11 Este 20 Este 0 963 1.2 37
2019-02-26 23:00:00 11.8 12 Sudeste 24 Este 0 962.9 1.4 37
2019-02-26 22:00:00 12.7 11 Sudeste 24 Sudeste 0 962.4 0.6 36
2019-02-26 21:00:00 13.6 13 Este 22 Este 0 961.8 0.5 36
2019-02-26 20:00:00 13.7 12 Este 18 Este 0 961.5 0.6 37
2019-02-26 19:00:00 15.4 8 Sudeste 20 Sudeste 0 961.8 0.7 33
2019-02-26 18:00:00 17.5 12 Sudeste 27 Sur 0 961.3 -0.3 29
2019-02-26 17:00:00 18.5 14 Sudeste 29 Sudeste 0 960.9 -1.4 29
2019-02-26 16:00:00 18.7 15 Sudeste 27 Sudeste 0 961.1 -1.7 31
2019-02-26 15:00:00 18.7 14 Sudeste 24 Sudeste 0 961.6 -1.2 28
2019-02-26 14:00:00 18.7 12 Sudeste 25 Este 0 962.3 -0.1 28
2019-02-26 13:00:00 17.9 14 Sudeste 28 Sudeste 0 962.8 0.6 30
2019-02-26 12:00:00 17 12 Sudeste 28 Este 0 962.8 0.8 32
2019-02-26 11:00:00 15 14 Este 26 Este 0 962.4 0.6 43
2019-02-26 10:00:00 12.5 14 Este 25 Este 0 962.2 0.6 53
2019-02-26 09:00:00 10.2 13 Este 22 Este 0 962 0.6 65
2019-02-26 08:00:00 7.7 10 Este 20 Este 0 961.8 0.2 73
2019-02-26 07:00:00 7.8 11 Este 16 Este 0 961.6 -0.5 74
2019-02-26 06:00:00 6.8 9 Este 13 Este 0 961.4 -1 75
2019-02-26 05:00:00 5.8 4 Este 18 Este 0 961.6 -1.2 77
2019-02-26 04:00:00 8.4 11 Este 19 Este 0 962.1 -1.2 72
2019-02-26 03:00:00 4.8 6 Este 9 Sudeste 0 962.4 -1 84
2019-02-26 02:00:00 4.1 5 Sudeste 8 Este 0 962.8 -0.7 88
2019-02-26 01:00:00 5.8 3 Sudeste 10 Este 0 963.3 -0.1 78
2019-02-26 00:00:00 8.4 4 Sudeste 13 Este 0 963.4 0.4 68
2019-02-25 23:00:00 10.3 11 Este 15 Este 0 963.5 0.3 63
2019-02-25 22:00:00 7 3 Este 11 Este 0 963.4 0.3 74
2019-02-25 21:00:00 7.6 5 Este 7 Este 0 963 0.3 80
2019-02-25 20:00:00 9.2 3 Este 9 Sur 0 963.2 0.4 73
2019-02-25 19:00:00 14.2 3 Sur 12 Sudeste 0 963.1 0.1 50
2019-02-25 18:00:00 17.3 7 Sudeste 16 Este 0 962.7 -0.9 42
2019-02-25 17:00:00 18.1 10 Este 22 Este 0 962.8 -1.6 37
2019-02-25 16:00:00 17.9 15 Este 24 Este 0 963 -2.2 37
2019-02-25 15:00:00 17.9 9 Este 18 Sudeste 0 963.6 -1.9 38
2019-02-25 14:00:00 17.3 9 Sudeste 19 Sudeste 0 964.4 -1.1 41
2019-02-25 13:00:00 16.3 9 Sudeste 17 Este 0 965.2 0 43
2019-02-25 12:00:00 15.1 9 Sudeste 20 Este 0 965.5 0.5 47
2019-02-25 11:00:00 14.1 6 Sudeste 12 Este 0 965.5 1.2 53
2019-02-25 10:00:00 11.3 8 Este 15 Este 0 965.2 0.7 59
2019-02-25 09:00:00 6.8 8 Este 10 Este 0 965 0.6 75
2019-02-25 08:00:00 3.6 7 Este 10 Este 0 964.3 -0.2 84
2019-02-25 07:00:00 3.8 3 Sudeste 8 Este 0 964.5 -0.2 83
2019-02-25 06:00:00 5.6 6 Este 9 Este 0 964.4 -0.6 70
2019-02-25 05:00:00 7 5 Este 14 Sudeste 0 964.5 -1.2 59
2019-02-25 04:00:00 10.9 10 Sudeste 23 Sudeste 0 964.7 -1 48
2019-02-25 03:00:00 11 13 Sudeste 24 Sudeste 0 965 -0.4 51
2019-02-25 02:00:00 7.5 9 Este 13 Sur 0 965.7 0.5 61
2019-02-25 01:00:00 8.2 6 Este 19 Sudeste 0 965.7 0.8 57
2019-02-25 00:00:00 11.1 8 Sudeste 18 Sudeste 0 965.4 1 49
2019-02-24 23:00:00 11.8 8 Sudeste 19 Este 0 965.2 1.2 48
2019-02-24 22:00:00 12.8 10 Sudeste 18 Sudeste 0 964.9 1.5 46
2019-02-24 21:00:00 11 8 Este 13 Este 0 964.4 1.4 52
2019-02-24 20:00:00 11.6 9 Este 13 Este 0 964 1.3 51
2019-02-24 19:00:00 13.9 5 Sudeste 14 Este 0 963.4 0.6 40
2019-02-24 18:00:00 18.4 8 Sudeste 17 Sudeste 0 963 0 31
2019-02-24 17:00:00 19.1 8 Sudeste 18 Sur 0 962.7 -0.5 32
2019-02-24 16:00:00 19.3 7 Sudeste 22 Sudeste 0 962.8 -0.8 32
2019-02-24 15:00:00 19.1 8 Sudeste 21 Sur 0 963 -0.4 33
2019-02-24 14:00:00 18.5 11 Este 22 Este 0 963.2 0.3 32
2019-02-24 13:00:00 18.3 14 Sudeste 32 Este 0 963.6 1.1 32
2019-02-24 12:00:00 18.2 13 Sudeste 22 Sudeste 0 963.4 1.3 32
2019-02-24 11:00:00 16.2 8 Este 15 Este 0 962.9 1.5 40
2019-02-24 10:00:00 12.6 7 Este 13 Este 0 962.5 1.1 55
2019-02-24 09:00:00 4.7 3 Sudeste 7 Este 0 962.1 0.8 89
2019-02-24 08:00:00 3.8 5 Sudeste 9 Este 0 961.4 0 90
2019-02-24 07:00:00 4 4 Este 8 Este 0 961.4 -0.3 89
2019-02-24 06:00:00 3.9 6 Este 9 Este 0 961.3 -0.5 89
2019-02-24 05:00:00 4.6 6 Este 8 Este 0 961.4 -0.5 85
2019-02-24 04:00:00 6.6 4 Sudeste 6 Sudeste 0 961.7 -0.3 80
2019-02-24 03:00:00 7.6 3 Este 8 Este 0 961.8 -0.4 73
2019-02-24 02:00:00 10.4 5 Este 13 Nordeste 0 961.9 -0.5 59
2019-02-24 01:00:00 10 3 Nordeste 14 Nordeste 0 962 -0.3 63
2019-02-24 00:00:00 12.8 7 Nordeste 14 Nordeste 0 962.2 -0.1 54
2019-02-23 23:00:00 12.4 2 Nordeste 12 Noroeste 0 962.4 -0.2 51
2019-02-23 22:00:00 12.5 3 Nordeste 9 Nordeste 0 962.3 0 50
2019-02-23 21:00:00 13.5 2 Este 9 Nordeste 0 962.3 -0.1 42
2019-02-23 20:00:00 13.4 3 Norte 9 Noroeste 0 962.6 0 43
2019-02-23 19:00:00 16.9 3 Norte 19 Noroeste 0 962.3 -0.5 37
2019-02-23 18:00:00 18.4 6 Noroeste 19 Noroeste 0 962.4 -1 35
2019-02-23 17:00:00 19.5 11 Norte 22 Norte 0 962.6 -1.2 32
2019-02-23 16:00:00 20.4 8 Nordeste 19 Norte 0 962.8 -1.8 29
2019-02-23 15:00:00 19.9 9 Nordeste 21 Este 0 963.4 -1.7 32
2019-02-23 14:00:00 18.7 9 Nordeste 18 Nordeste 0 963.8 -1.4 33
2019-02-23 13:00:00 17.6 9 Este 18 Este 0 964.6 -0.8 36
2019-02-23 12:00:00 16.1 9 Este 16 Este 0 965.1 0.3 43
2019-02-23 11:00:00 14.7 8 Este 16 Nordeste 0 965.2 0.8 51
2019-02-23 10:00:00 11.1 4 Este 10 Este 0 965.4 1.1 68
2019-02-23 09:00:00 4.4 4 Sudeste 8 Oeste 0 964.8 0.5 86
2019-02-23 08:00:00 4.3 2 Este 10 Este 0 964.4 0.2 83
2019-02-23 07:00:00 4.6 6 Sudeste 12 Este 0 964.3 0.2 85
2019-02-23 06:00:00 3 0 Calma 6 Este 0 964.3 -0.2 89
2019-02-23 05:00:00 3.7 4 Este 12 Este 0 964.2 -0.7 86
2019-02-23 04:00:00 3.4 8 Este 9 Este 0 964.1 -0.9 88
2019-02-23 03:00:00 4.1 5 Este 10 Este 0 964.5 -0.7 86
2019-02-23 02:00:00 4.7 6 Sudeste 9 Este 0 964.9 -0.4 84
2019-02-23 01:00:00 5.7 6 Sudeste 10 Este 0 965 0 81
2019-02-23 00:00:00 5.4 6 Sudeste 9 Sudeste 0 965.2 0.6 84
2019-02-22 23:00:00 6.3 6 Sudeste 8 Sudeste 0 965.3 0.9 82
2019-02-22 22:00:00 5.9 6 Este 9 Este 0 965 1.2 82
2019-02-22 21:00:00 7 5 Sudeste 7 Sudeste 0 964.6 0.8 78
2019-02-22 20:00:00 8.3 4 Sudeste 6 Sudeste 0 964.4 0.4 73
2019-02-22 19:00:00 12.2 4 Este 9 Sur 0 963.8 0 54
2019-02-22 18:00:00 17.5 5 Sur 12 Sur 0 963.8 0 37
2019-02-22 17:00:00 18.7 7 Sur 16 Sur 0 964 -0.4 33
2019-02-22 16:00:00 18.9 8 Sur 16 Sur 0 963.8 -1 31
2019-02-22 15:00:00 18.6 8 Sur 20 Sur 0 963.8 -1.2 32
2019-02-22 14:00:00 17.9 11 Sur 26 Sur 0 964.4 -0.5 31
2019-02-22 13:00:00 17.3 12 Sudeste 29 Sur 0 964.8 0 32
2019-02-22 12:00:00 16.2 12 Sudeste 24 Sudeste 0 965 0.8 35
2019-02-22 11:00:00 14.3 12 Este 24 Este 0 964.9 0.9 43
2019-02-22 10:00:00 12.3 11 Este 17 Este 0 964.8 1 51
2019-02-22 09:00:00 9.6 10 Este 23 Este 0 964.2 0.4 61
2019-02-22 08:00:00 8.2 12 Este 20 Este 0 964 0.1 64
2019-02-22 07:00:00 9.7 13 Este 22 Sudeste 0 963.8 -0.3 57
2019-02-22 06:00:00 9.8 13 Este 22 Este 0 963.8 -0.4 57
2019-02-22 05:00:00 8.8 12 Este 17 Este 0 963.9 -0.2 63
2019-02-22 04:00:00 8.6 9 Este 16 Este 0 964.1 -0.3 67
2019-02-22 03:00:00 8.5 11 Este 19 Este 0 964.2 -0.1 67
2019-02-22 02:00:00 9.3 9 Este 19 Este 0 964.1 0.1 63
2019-02-22 01:00:00 8.8 11 Este 15 Este 0 964.4 0.6 67
2019-02-22 00:00:00 7.7 4 Este 11 Este 0 964.3 1.1 67
2019-02-21 23:00:00 8.6 7 Este 11 Este 0 964 1.8 68
2019-02-21 22:00:00 8.4 6 Este 12 Este 0 963.8 2.1 72
2019-02-21 21:00:00 9.6 4 Este 8 Sudeste 0 963.2 2 71
2019-02-21 20:00:00 10.7 4 Este 8 Este 0 962.2 1.1 64
2019-02-21 19:00:00 13 4 Sudeste 13 Sudeste 0 961.7 0.5 52
2019-02-21 18:00:00 15.6 7 Sudeste 16 Sudeste 0 961.2 0.1 44
2019-02-21 17:00:00 16.6 9 Sudeste 21 Este 0 961.1 -0.1 43
2019-02-21 16:00:00 16.5 10 Sudeste 21 Sudeste 0 961.2 -0.3 43
2019-02-21 15:00:00 16.3 11 Sudeste 23 Sur 0 961.1 -0.1 42
2019-02-21 14:00:00 15.6 10 Sudeste 25 Sudeste 0 961.2 0.1 44
2019-02-21 13:00:00 14.8 13 Sudeste 27 Sudeste 0 961.5 0.8 46
2019-02-21 12:00:00 13.7 14 Sudeste 25 Este 0 961.2 1 48
2019-02-21 11:00:00 12.5 8 Sudeste 22 Sudeste 0 961.1 1.7 54
2019-02-21 10:00:00 10.7 13 Sudeste 25 Este 0 960.7 1.6 65
2019-02-21 09:00:00 9.1 8 Sudeste 21 Este 0 960.2 1.1 73
2019-02-21 08:00:00 8.2 8 Este 21 Sudeste 0 959.4 0.4 75
2019-02-21 07:00:00 8.1 11 Este 21 Este 0 959.1 0 77
2019-02-21 06:00:00 7.3 6 Este 14 Este 0 959.1 -0.3 79
2019-02-21 05:00:00 7.2 8 Este 12 Este 0 959 -0.4 84
2019-02-21 04:00:00 7.8 6 Este 13 Este 0 959.1 -0.2 79
2019-02-21 03:00:00 7.8 8 Este 12 Este 0 959.4 0 78
2019-02-21 02:00:00 8.5 8 Este 13 Sudeste 0 959.4 0 72
2019-02-21 01:00:00 9 5 Este 14 Sudeste 0 959.3 0.4 67
2019-02-21 00:00:00 9 6 Este 13 Sudeste 0 959.4 0.9 69
2019-02-20 23:00:00 6.4 4 Este 8 Este 0 959.4 1.3 88
2019-02-20 22:00:00 6.6 6 Este 9 Este 0 958.9 1.2 88
2019-02-20 21:00:00 7 4 Este 6 Este 0 958.5 1.1 86
2019-02-20 20:00:00 8.1 3 Este 4 Este 0 958.1 0.6 81
2019-02-20 19:00:00 11.3 2 Este 10 Sudeste 0 957.7 0.3 67
2019-02-20 18:00:00 14.6 7 Sur 17 Sur 0 957.4 -0.2 53
2019-02-20 17:00:00 15.7 7 Sudeste 15 Sudeste 0 957.5 -0.5 48
2019-02-20 16:00:00 16.2 8 Sudeste 16 Sudeste 0 957.4 -1.2 48
2019-02-20 15:00:00 15.8 6 Sudeste 17 Sudeste 0 957.6 -0.9 50
2019-02-20 14:00:00 15.1 8 Sudeste 19 Sur 0 958 -0.1 53
2019-02-20 13:00:00 14.1 9 Sudeste 21 Sudeste 0 958.6 0.9 54
2019-02-20 12:00:00 13.5 10 Sudeste 22 Sur 0 958.5 1.3 56
2019-02-20 11:00:00 12.5 9 Sur 17 Sudeste 0 958.1 1.9 63
2019-02-20 10:00:00 10.2 7 Este 12 Este 0 957.7 1.8 81
2019-02-20 09:00:00 5.9 3 Sudeste 6 Sudeste 0 957.2 1.8 93
2019-02-20 08:00:00 3.9 5 Sudeste 7 Este 0 956.2 0.5 94
2019-02-20 07:00:00 3.6 5 Sudeste 6 Este 0 955.9 0 94
2019-02-20 06:00:00 4 4 Este 6 Sudeste 0 955.4 -0.5 93
2019-02-20 05:00:00 4.8 5 Sudeste 7 Este 0 955.7 -0.2 93
2019-02-20 04:00:00 5.3 3 Sudeste 6 Este 0 955.9 -0.1 90
2019-02-20 03:00:00 6.5 5 Sudeste 8 Este 0 955.9 -0.1 88
2019-02-20 02:00:00 6.8 3 Sudeste 7 Este 0 955.9 -0.1 88
2019-02-20 01:00:00 7.4 3 Este 8 Sudeste 0 956 0.5 84
2019-02-20 00:00:00 9.3 4 Este 10 Este 0 956 0.8 80